createdAt,value
2019-05-07T00:02:17.169Z,14.58
2019-05-07T00:04:52.141Z,17.67
2019-05-07T00:07:23.765Z,19.32
2019-05-07T00:09:56.526Z,14.73
2019-05-07T00:12:29.733Z,17.40
2019-05-07T00:15:04.663Z,15.15
2019-05-07T00:17:36.935Z,15.58
2019-05-07T00:20:12.803Z,13.13
2019-05-07T00:22:45.724Z,14.43
2019-05-07T00:25:18.561Z,13.90
2019-05-07T00:27:52.338Z,13.20
2019-05-07T00:30:26.468Z,16.10
2019-05-07T00:32:59.863Z,16.70
2019-05-07T00:35:39.871Z,16.97
2019-05-07T00:38:14.195Z,17.10
2019-05-07T00:40:52.028Z,18.37
2019-05-07T00:43:26.171Z,20.37
2019-05-07T00:46:02.088Z,17.57
2019-05-07T00:48:34.531Z,21.30
2019-05-07T00:51:26.265Z,15.78
2019-05-07T00:53:59.594Z,17.00
2019-05-07T00:56:33.335Z,16.65
2019-05-07T00:59:02.455Z,17.50
2019-05-07T01:01:32.423Z,18.82
2019-05-07T01:04:02.702Z,19.10
2019-05-07T01:06:33.129Z,17.85
2019-05-07T01:09:03.187Z,19.90
2019-05-07T01:11:33.505Z,18.25
2019-05-07T01:14:02.847Z,19.87
2019-05-07T01:16:32.986Z,19.48
2019-05-07T01:19:02.202Z,20.05
2019-05-07T01:21:36.911Z,21.93
2019-05-07T01:24:05.797Z,22.22
2019-05-07T01:26:34.590Z,21.50
2019-05-07T01:29:03.551Z,22.50
2019-05-07T01:31:35.105Z,20.43
2019-05-07T01:34:23.091Z,18.25
2019-05-07T01:36:52.419Z,18.32
2019-05-07T01:39:23.157Z,20.70
2019-05-07T01:41:52.423Z,19.42
2019-05-07T01:44:22.121Z,21.82
2019-05-07T01:46:52.932Z,20.55
2019-05-07T01:49:23.864Z,21.97
2019-05-07T01:51:52.959Z,20.52
2019-05-07T01:54:23.758Z,19.62
2019-05-07T01:56:52.474Z,17.05
2019-05-07T01:59:22.479Z,17.82
2019-05-07T02:01:53.032Z,25.52
2019-05-07T02:04:23.457Z,21.42
2019-05-07T02:06:59.768Z,18.82
2019-05-07T02:09:30.169Z,22.55
2019-05-07T02:12:03.129Z,20.43
2019-05-07T02:14:33.043Z,24.15
2019-05-07T02:17:02.962Z,26.97
2019-05-07T02:19:32.891Z,31.15
2019-05-07T02:22:02.755Z,22.32
2019-05-07T02:24:33.713Z,24.67
2019-05-07T02:27:03.003Z,21.75
2019-05-07T02:29:32.559Z,26.70
2019-05-07T02:32:04.816Z,22.60
2019-05-07T02:34:34.339Z,25.20
2019-05-07T02:37:04.248Z,23.12
2019-05-07T02:39:43.989Z,23.35
2019-05-07T02:42:13.066Z,32.45
2019-05-07T02:44:58.330Z,23.75
2019-05-07T02:47:28.863Z,26.52
2019-05-07T02:50:03.005Z,27.40
2019-05-07T02:52:33.638Z,25.95
2019-05-07T02:55:04.385Z,29.55
2019-05-07T02:57:34.295Z,27.95
2019-05-07T03:00:04.949Z,28.85
2019-05-07T03:02:34.108Z,32.35
2019-05-07T03:05:05.216Z,36.93
2019-05-07T03:07:33.830Z,32.53
2019-05-07T03:10:03.772Z,29.00
2019-05-07T03:12:33.585Z,31.62
2019-05-07T03:15:04.501Z,28.42
2019-05-07T03:17:33.515Z,29.30
2019-05-07T03:20:04.210Z,34.20
2019-05-07T03:22:33.839Z,30.60
2019-05-07T03:25:07.513Z,31.07
2019-05-07T03:27:36.337Z,29.82
2019-05-07T03:30:16.052Z,29.80
2019-05-07T03:32:46.820Z,29.85
2019-05-07T03:35:17.555Z,36.30
2019-05-07T03:37:46.540Z,31.70
2019-05-07T03:40:15.495Z,31.23
2019-05-07T03:42:44.471Z,30.05
2019-05-07T03:45:15.454Z,28.83
2019-05-07T03:47:45.886Z,34.58
2019-05-07T03:50:15.141Z,37.00
2019-05-07T03:52:44.205Z,35.88
2019-05-07T03:55:14.600Z,36.30
2019-05-07T03:57:44.064Z,35.63
2019-05-07T04:00:13.599Z,31.87
2019-05-07T04:02:43.820Z,33.60
2019-05-07T04:05:14.318Z,41.77
2019-05-07T04:07:43.648Z,31.82
2019-05-07T04:10:14.597Z,33.28
2019-05-07T04:12:44.299Z,32.63
2019-05-07T04:15:15.488Z,37.08
2019-05-07T04:17:44.043Z,36.10
2019-05-07T04:20:13.719Z,33.28
2019-05-07T04:22:43.366Z,36.00
2019-05-07T04:25:17.057Z,35.10
2019-05-07T04:27:52.992Z,38.42
2019-05-07T04:30:23.603Z,37.85
2019-05-07T04:32:53.871Z,36.45
2019-05-07T04:35:33.177Z,35.17
2019-05-07T04:38:05.412Z,34.40
2019-05-07T04:40:33.801Z,33.70
2019-05-07T04:43:02.803Z,33.67
2019-05-07T04:45:33.847Z,32.38
2019-05-07T04:48:03.063Z,34.35
2019-05-07T04:50:42.716Z,29.87
2019-05-07T04:53:04.449Z,36.35
2019-05-07T04:55:33.771Z,37.30
2019-05-07T04:58:04.524Z,36.17
2019-05-07T05:00:33.732Z,34.48
2019-05-07T05:03:04.412Z,30.05
2019-05-07T05:05:39.243Z,31.27
2019-05-07T05:08:08.003Z,33.42
2019-05-07T05:10:36.919Z,28.98
2019-05-07T05:13:05.915Z,31.87
2019-05-07T05:15:34.778Z,31.40
2019-05-07T05:18:03.836Z,30.17
2019-05-07T05:20:37.165Z,29.25
2019-05-07T05:23:12.094Z,27.48
2019-05-07T05:25:43.125Z,34.73
2019-05-07T05:28:12.745Z,28.27
2019-05-07T05:30:43.606Z,29.82
2019-05-07T05:33:12.748Z,31.20
2019-05-07T05:35:43.117Z,25.77
2019-05-07T05:38:12.827Z,34.18
2019-05-07T05:40:42.647Z,29.05
2019-05-07T05:43:19.560Z,25.30
2019-05-07T05:45:50.030Z,23.92
2019-05-07T05:48:18.854Z,35.85
2019-05-07T05:50:58.078Z,25.62
2019-05-07T05:53:32.685Z,25.50
2019-05-07T05:56:03.424Z,27.40
2019-05-07T05:58:39.704Z,30.02
2019-05-07T06:01:19.240Z,26.50
2019-05-07T06:03:51.892Z,29.70
2019-05-07T06:06:21.996Z,31.62
2019-05-07T06:08:52.627Z,24.57
2019-05-07T06:11:22.986Z,23.62
2019-05-07T06:13:59.082Z,30.23
2019-05-07T06:16:32.924Z,28.65
2019-05-07T06:19:23.039Z,28.38
2019-05-07T06:22:01.985Z,20.90
2019-05-07T06:24:34.305Z,27.50
2019-05-07T06:27:03.113Z,24.90
2019-05-07T06:29:32.984Z,24.80
2019-05-07T06:32:03.632Z,34.40
2019-05-07T06:34:34.236Z,30.35
2019-05-07T06:37:02.774Z,27.00
2019-05-07T06:39:42.198Z,26.80
2019-05-07T06:42:24.331Z,29.05
2019-05-07T06:45:03.556Z,22.55
2019-05-07T06:47:32.305Z,24.43
2019-05-07T06:50:03.152Z,22.42
2019-05-07T06:52:32.067Z,32.20
2019-05-07T06:55:03.170Z,28.80
2019-05-07T06:57:34.636Z,25.17
2019-05-07T07:00:08.146Z,28.23
2019-05-07T07:02:38.565Z,24.00
2019-05-07T07:05:18.498Z,27.82
2019-05-07T07:07:48.852Z,21.60
2019-05-07T07:10:22.648Z,23.10
2019-05-07T07:12:53.079Z,23.95
2019-05-07T07:15:23.226Z,24.35
2019-05-07T07:17:52.473Z,22.82
2019-05-07T07:20:21.835Z,29.45
2019-05-07T07:22:52.074Z,19.70
2019-05-07T07:25:22.871Z,22.45
2019-05-07T07:27:52.067Z,26.35
2019-05-07T07:30:25.738Z,19.23
2019-05-07T07:32:56.185Z,15.95
2019-05-07T07:35:25.010Z,21.70
2019-05-07T07:37:53.842Z,26.90
2019-05-07T07:40:24.488Z,18.07
2019-05-07T07:42:53.182Z,23.98
2019-05-07T07:45:23.082Z,21.07
2019-05-07T07:47:53.060Z,23.00
2019-05-07T07:50:22.519Z,17.55
2019-05-07T07:52:53.024Z,15.72
2019-05-07T07:55:23.586Z,16.10
2019-05-07T07:58:03.347Z,19.10
2019-05-07T08:00:33.853Z,16.42
2019-05-07T08:03:04.158Z,16.30
2019-05-07T08:05:32.905Z,12.78
2019-05-07T08:08:02.254Z,18.20
2019-05-07T08:10:32.550Z,16.87
2019-05-07T08:13:02.067Z,16.05
2019-05-07T08:15:33.079Z,15.80
2019-05-07T08:18:02.816Z,11.73
2019-05-07T08:20:32.617Z,18.10
2019-05-07T08:23:02.884Z,17.77
2019-05-07T08:25:52.402Z,9.80
2019-05-07T08:28:23.256Z,10.75
2019-05-07T08:30:56.708Z,11.83
2019-05-07T08:33:27.006Z,11.57
2019-05-07T08:35:57.347Z,11.30
2019-05-07T08:38:26.077Z,10.98
2019-05-07T08:40:54.754Z,18.37
2019-05-07T08:43:23.457Z,11.53
2019-05-07T08:46:11.978Z,12.20
2019-05-07T08:48:42.574Z,9.95
2019-05-07T08:51:11.915Z,8.83
2019-05-07T08:53:42.300Z,11.55
2019-05-07T08:56:12.445Z,12.82
2019-05-07T08:58:42.074Z,10.35
2019-05-07T09:01:11.892Z,12.68
2019-05-07T09:03:43.954Z,11.25
2019-05-07T09:06:17.653Z,12.55
2019-05-07T09:08:46.298Z,7.97
2019-05-07T09:11:15.061Z,10.55
2019-05-07T09:13:43.828Z,9.98
2019-05-07T09:16:13.095Z,8.53
2019-05-07T09:18:42.320Z,14.70
2019-05-07T09:21:12.565Z,10.23
2019-05-07T09:23:42.398Z,10.18
2019-05-07T09:26:13.176Z,15.98
2019-05-07T09:28:58.899Z,11.78
2019-05-07T09:31:32.245Z,10.65
2019-05-07T09:34:02.672Z,7.47
2019-05-07T09:36:33.236Z,8.60
2019-05-07T09:39:02.798Z,7.92
2019-05-07T09:41:32.699Z,12.70
2019-05-07T09:44:03.163Z,9.50
2019-05-07T09:46:32.674Z,11.12
2019-05-07T09:49:03.071Z,10.35
2019-05-07T09:51:32.293Z,12.75
2019-05-07T09:54:02.508Z,7.78
2019-05-07T09:56:32.019Z,9.90
2019-05-07T09:59:02.175Z,12.37
2019-05-07T10:01:31.945Z,10.08
2019-05-07T10:04:02.579Z,14.83
2019-05-07T10:06:32.071Z,8.93
2019-05-07T10:09:02.827Z,9.35
2019-05-07T10:11:49.935Z,10.53
2019-05-07T10:14:18.759Z,9.33
2019-05-07T10:16:49.158Z,13.28
2019-05-07T10:19:17.951Z,10.68
2019-05-07T10:21:46.713Z,13.90
2019-05-07T10:24:15.652Z,11.25
2019-05-07T10:26:44.450Z,9.10
2019-05-07T10:29:13.209Z,7.22
2019-05-07T10:31:42.380Z,14.70
2019-05-07T10:34:12.336Z,19.23
2019-05-07T10:36:42.163Z,7.67
2019-05-07T10:39:12.914Z,17.27
2019-05-07T10:41:42.458Z,20.88
2019-05-07T10:44:14.241Z,14.68
2019-05-07T10:47:02.019Z,7.33
2019-05-07T10:49:32.577Z,9.58
2019-05-07T10:52:02.164Z,10.13
2019-05-07T10:54:31.073Z,13.30
2019-05-07T10:56:59.825Z,12.68
2019-05-07T10:59:28.578Z,8.53
2019-05-07T11:02:12.619Z,8.00
2019-05-07T11:04:43.573Z,9.63
2019-05-07T11:07:11.989Z,9.75
2019-05-07T11:09:42.043Z,14.50
2019-05-07T11:12:12.751Z,7.55
2019-05-07T11:14:41.351Z,9.10
2019-05-07T11:17:11.971Z,8.08
2019-05-07T11:19:41.665Z,6.53
2019-05-07T11:22:11.633Z,9.60
2019-05-07T11:24:40.358Z,7.78
2019-05-07T11:27:09.042Z,10.08
2019-05-07T11:29:37.848Z,10.75
2019-05-07T11:32:06.580Z,10.85
2019-05-07T11:34:36.938Z,8.50
2019-05-07T11:37:05.647Z,10.75
2019-05-07T11:39:34.427Z,9.35
2019-05-07T11:42:23.096Z,7.22
2019-05-07T11:44:54.988Z,8.83
2019-05-07T11:47:34.349Z,6.80
2019-05-07T11:50:16.881Z,7.60
2019-05-07T11:52:47.242Z,8.40
2019-05-07T11:55:15.999Z,10.85
2019-05-07T11:57:47.252Z,6.50
2019-05-07T12:00:36.525Z,6.33
2019-05-07T12:03:07.422Z,9.60
2019-05-07T12:05:42.127Z,7.10
2019-05-07T12:08:13.228Z,7.95
2019-05-07T12:10:43.296Z,8.38
2019-05-07T12:13:12.967Z,7.95
2019-05-07T12:15:44.029Z,6.47
2019-05-07T12:18:15.376Z,8.65
2019-05-07T12:20:45.763Z,7.00
2019-05-07T12:23:15.694Z,7.25
2019-05-07T12:25:47.727Z,8.43
2019-05-07T12:28:17.924Z,11.35
2019-05-07T12:30:56.855Z,8.13
2019-05-07T12:33:44.116Z,7.33
2019-05-07T12:36:15.463Z,6.15
2019-05-07T12:38:44.693Z,8.00
2019-05-07T12:41:34.412Z,5.55
2019-05-07T12:44:07.123Z,9.88
2019-05-07T12:46:38.309Z,9.20
2019-05-07T12:49:11.781Z,6.93
2019-05-07T12:51:42.699Z,9.35
2019-05-07T12:54:34.673Z,9.33
2019-05-07T12:57:03.657Z,7.17
2019-05-07T12:59:33.004Z,11.00
2019-05-07T13:02:34.821Z,9.83
2019-05-07T13:04:52.163Z,8.38
2019-05-07T13:07:26.023Z,7.85
2019-05-07T13:09:58.091Z,7.58
2019-05-07T13:12:28.066Z,6.42
2019-05-07T13:14:59.040Z,8.03
2019-05-07T13:17:29.939Z,5.87
2019-05-07T13:20:02.042Z,7.17
2019-05-07T13:22:32.577Z,6.47
2019-05-07T13:25:07.555Z,9.15
2019-05-07T13:27:42.881Z,6.55
2019-05-07T13:30:12.865Z,7.40
2019-05-07T13:32:48.271Z,3.90
2019-05-07T13:35:19.139Z,5.58
2019-05-07T13:38:05.336Z,11.97
2019-05-07T13:40:39.557Z,5.65
2019-05-07T13:43:23.244Z,6.80
2019-05-07T13:46:13.815Z,8.60
2019-05-07T13:48:47.699Z,29.10
2019-05-07T13:51:22.005Z,6.83
2019-05-07T13:54:06.063Z,10.30
2019-05-07T13:56:46.982Z,9.48
2019-05-07T13:59:22.607Z,13.28
2019-05-07T14:02:04.509Z,6.90
2019-05-07T14:04:32.614Z,12.80
2019-05-07T14:07:01.949Z,7.42
2019-05-07T14:09:32.629Z,12.50
2019-05-07T14:12:13.842Z,10.58
2019-05-07T14:14:52.808Z,15.48
2019-05-07T14:17:29.620Z,31.35
2019-05-07T14:20:06.876Z,10.45
2019-05-07T14:22:46.769Z,8.78
2019-05-07T14:25:26.241Z,11.48
2019-05-07T14:28:02.257Z,9.05
2019-05-07T14:30:37.105Z,7.42
2019-05-07T14:33:22.717Z,8.65
2019-05-07T14:36:02.837Z,7.55
2019-05-07T14:38:44.493Z,9.43
2019-05-07T14:41:25.717Z,8.38
2019-05-07T14:44:01.933Z,9.85
2019-05-07T14:46:47.322Z,10.55
2019-05-07T14:49:12.840Z,8.05
2019-05-07T14:51:49.763Z,7.53
2019-05-07T14:54:25.802Z,9.23
2019-05-07T14:57:02.260Z,5.97
2019-05-07T14:59:35.782Z,8.03
2019-05-07T15:02:12.098Z,9.50
2019-05-07T15:04:41.930Z,9.13
2019-05-07T15:07:12.118Z,14.05
2019-05-07T15:09:43.975Z,11.28
2019-05-07T15:17:32.599Z,10.82
2019-05-07T15:20:07.878Z,11.25
2019-05-07T15:22:49.461Z,8.48
2019-05-07T15:25:22.549Z,6.45
2019-05-07T15:28:01.626Z,8.58
2019-05-07T15:30:38.890Z,10.10
2019-05-07T15:33:08.816Z,12.25
2019-05-07T15:35:42.453Z,19.62
2019-05-07T15:38:11.702Z,8.63
2019-05-07T15:40:45.109Z,10.23
2019-05-07T15:43:15.350Z,8.78
2019-05-07T15:45:44.564Z,7.50
2019-05-07T15:48:14.389Z,7.15
2019-05-07T15:50:45.966Z,13.45
2019-05-07T15:53:28.686Z,11.38
2019-05-07T15:55:57.875Z,10.80
2019-05-07T15:58:26.969Z,8.08
2019-05-07T16:00:55.835Z,9.23
2019-05-07T16:03:27.073Z,10.53
2019-05-07T16:05:56.593Z,10.30
2019-05-07T16:08:27.037Z,10.70
2019-05-07T16:10:56.040Z,11.40
2019-05-07T16:13:27.235Z,11.10
2019-05-07T16:15:56.651Z,11.00
2019-05-07T16:18:39.388Z,15.48
2019-05-07T16:21:08.491Z,11.48
2019-05-07T16:23:37.275Z,12.15
2019-05-07T16:26:06.678Z,13.03
2019-05-07T16:28:36.158Z,12.03
2019-05-07T16:31:05.386Z,13.20
2019-05-07T16:33:34.776Z,13.53
2019-05-07T16:36:03.966Z,10.53
2019-05-07T16:38:32.873Z,12.63
2019-05-07T16:41:01.557Z,11.93
2019-05-07T16:43:30.346Z,11.73
2019-05-07T16:45:59.927Z,8.28
2019-05-07T16:48:28.741Z,12.03
2019-05-07T16:50:57.530Z,11.25
2019-05-07T16:53:30.151Z,10.82
2019-05-07T16:55:59.715Z,13.78
2019-05-07T16:58:34.990Z,12.07
2019-05-07T17:01:16.848Z,11.73
2019-05-07T17:03:52.091Z,10.90
2019-05-07T17:06:24.746Z,13.35
2019-05-07T17:09:02.848Z,9.55
2019-05-07T17:11:32.162Z,9.73
2019-05-07T17:14:02.336Z,11.70
2019-05-07T17:16:31.718Z,17.67
2019-05-07T17:19:02.526Z,11.20
2019-05-07T17:21:32.435Z,14.83
2019-05-07T17:24:05.550Z,13.75
2019-05-07T17:26:34.426Z,14.43
2019-05-07T17:29:04.350Z,12.40
2019-05-07T17:31:36.080Z,11.03
2019-05-07T17:34:05.208Z,13.10
2019-05-07T17:36:34.554Z,12.58
2019-05-07T17:39:04.593Z,12.88
2019-05-07T17:41:33.506Z,14.98
2019-05-07T17:44:02.786Z,13.75
2019-05-07T17:46:32.437Z,12.37
2019-05-07T17:49:02.696Z,15.35
2019-05-07T17:51:44.344Z,13.40
2019-05-07T17:54:13.793Z,13.43
2019-05-07T17:56:43.857Z,10.50
2019-05-07T17:59:12.971Z,13.20
2019-05-07T18:02:01.950Z,11.18
2019-05-07T18:04:46.683Z,18.02
2019-05-07T18:07:03.170Z,10.15
2019-05-07T18:09:32.025Z,14.95
2019-05-07T18:12:00.953Z,10.48
2019-05-07T18:14:31.962Z,15.72
2019-05-07T18:17:02.413Z,10.25
2019-05-07T18:19:33.167Z,16.27
2019-05-07T18:22:02.625Z,11.93
2019-05-07T18:24:33.386Z,14.13
2019-05-07T18:27:03.921Z,14.55
2019-05-07T18:29:32.708Z,14.98
2019-05-07T18:32:06.611Z,16.45
2019-05-07T18:34:38.246Z,13.65
2019-05-07T18:37:07.467Z,14.03
2019-05-07T18:39:36.661Z,15.28
2019-05-07T18:42:05.533Z,16.50
2019-05-07T18:44:34.312Z,11.00
2019-05-07T18:47:03.349Z,12.33
2019-05-07T18:49:32.229Z,13.22
2019-05-07T18:52:02.886Z,15.35
2019-05-07T18:54:31.862Z,21.23
2019-05-07T18:57:02.292Z,12.78
2019-05-07T18:59:36.261Z,17.73
2019-05-07T19:02:05.584Z,11.65
2019-05-07T19:04:34.374Z,14.30
2019-05-07T19:07:03.364Z,15.80
2019-05-07T19:09:32.267Z,17.65
2019-05-07T19:12:01.127Z,11.43
2019-05-07T19:14:30.141Z,11.15
2019-05-07T19:17:00.110Z,21.25
2019-05-07T19:19:29.463Z,18.70
2019-05-07T19:21:58.759Z,17.85
2019-05-07T19:24:43.720Z,15.93
2019-05-07T19:27:02.044Z,16.75
2019-05-07T19:29:32.723Z,19.23
2019-05-07T19:32:03.217Z,21.95
2019-05-07T19:34:32.814Z,17.87
2019-05-07T19:37:02.580Z,13.22
2019-05-07T19:39:32.499Z,13.00
2019-05-07T19:42:02.569Z,12.90
2019-05-07T19:44:31.891Z,12.35
2019-05-07T19:47:02.006Z,13.68
2019-05-07T19:49:32.506Z,15.88
2019-05-07T19:52:02.264Z,18.20
2019-05-07T19:54:32.437Z,14.58
2019-05-07T19:57:04.554Z,14.18
2019-05-07T19:59:34.540Z,17.98
2019-05-07T20:02:06.642Z,14.65
2019-05-07T20:04:35.547Z,14.15
2019-05-07T20:07:14.833Z,16.97
2019-05-07T20:09:44.233Z,14.23
2019-05-07T20:12:14.098Z,19.67
2019-05-07T20:14:43.897Z,13.35
2019-05-07T20:17:15.617Z,15.53
2019-05-07T20:19:45.177Z,15.43
2019-05-07T20:22:14.585Z,16.87
2019-05-07T20:24:47.033Z,16.48
2019-05-07T20:27:23.156Z,15.03
2019-05-07T20:29:52.646Z,19.67
2019-05-07T20:32:22.540Z,18.52
2019-05-07T20:34:52.151Z,14.75
2019-05-07T20:37:22.108Z,18.85
2019-05-07T20:39:52.378Z,19.00
2019-05-07T20:42:23.137Z,18.95
2019-05-07T20:44:52.023Z,19.60
2019-05-07T20:47:26.012Z,15.23
2019-05-07T20:49:55.375Z,17.07
2019-05-07T20:52:26.297Z,17.92
2019-05-07T20:54:57.757Z,13.13
2019-05-07T20:57:28.379Z,15.45
2019-05-07T20:59:57.282Z,16.40
2019-05-07T21:02:41.750Z,18.52
2019-05-07T21:05:03.005Z,19.73
2019-05-07T21:07:35.018Z,16.67
2019-05-07T21:10:08.448Z,15.08
2019-05-07T21:12:38.880Z,10.75
2019-05-07T21:15:08.550Z,13.62
2019-05-07T21:17:42.775Z,11.40
2019-05-07T21:20:14.374Z,14.13
2019-05-07T21:22:46.929Z,17.77
2019-05-07T21:27:52.966Z,11.45
2019-05-07T21:30:22.408Z,13.98
2019-05-07T21:42:59.211Z,11.10
2019-05-07T21:47:59.253Z,14.80
2019-05-07T21:50:31.771Z,12.55
2019-05-07T21:53:04.716Z,10.58
2019-05-07T21:56:01.734Z,16.95
2019-05-07T21:58:32.724Z,13.83
2019-05-07T22:01:02.907Z,14.55
2019-05-07T22:03:36.291Z,13.15
2019-05-07T22:06:12.669Z,10.88
2019-05-07T22:08:43.523Z,13.20
2019-05-07T22:11:12.561Z,16.23
2019-05-07T22:13:43.553Z,16.45
2019-05-07T22:16:12.957Z,14.40
2019-05-07T22:18:42.701Z,12.63
2019-05-07T22:21:13.688Z,15.53
2019-05-07T22:23:42.962Z,13.43
2019-05-07T22:26:20.078Z,13.10
2019-05-07T22:28:42.310Z,17.05
2019-05-07T22:31:18.570Z,17.95
2019-05-07T22:33:52.810Z,14.15
2019-05-07T22:36:22.120Z,13.65
2019-05-07T22:38:52.720Z,12.70
2019-05-07T22:41:22.359Z,16.62
2019-05-07T22:43:51.423Z,18.65
2019-05-07T22:46:22.212Z,16.20
2019-05-07T22:48:50.644Z,11.35
2019-05-07T22:51:19.426Z,14.07
2019-05-07T22:53:48.212Z,13.32
2019-05-07T22:56:31.047Z,15.28
2019-05-07T22:58:49.445Z,17.85
2019-05-07T23:01:19.592Z,14.05
2019-05-07T23:03:56.451Z,12.37
2019-05-07T23:06:25.362Z,15.55
2019-05-07T23:08:54.151Z,15.30
2019-05-07T23:11:23.388Z,11.28
2019-05-07T23:13:54.756Z,17.32
2019-05-07T23:16:24.610Z,18.80
2019-05-07T23:18:53.400Z,15.72
2019-05-07T23:21:24.239Z,10.85
2019-05-07T23:23:52.840Z,13.88
2019-05-07T23:26:23.354Z,12.35
2019-05-07T23:28:52.238Z,22.20
2019-05-07T23:31:22.858Z,11.83
2019-05-07T23:33:52.321Z,13.88
2019-05-07T23:36:22.429Z,25.92
2019-05-07T23:38:52.188Z,16.35
2019-05-07T23:41:22.728Z,12.63
2019-05-07T23:44:15.379Z,14.23
2019-05-07T23:46:44.900Z,11.90
2019-05-07T23:49:14.190Z,14.63
2019-05-07T23:51:42.946Z,22.85
2019-05-07T23:54:12.259Z,13.45
2019-05-07T23:56:42.658Z,13.70
2019-05-07T23:59:14.541Z,12.20
